sensor_id;sensor_type;location;lat;lon;timestamp;P1;durP1;ratioP1;P2;durP2;ratioP2
13566;SDS011;6855;48.112;11.298;2023-03-12T00:02:19;15.50;;;4.90;;
13566;SDS011;6855;48.112;11.298;2023-03-12T00:04:47;10.37;;;3.00;;
13566;SDS011;6855;48.112;11.298;2023-03-12T00:07:14;14.40;;;3.17;;
13566;SDS011;6855;48.112;11.298;2023-03-12T00:09:41;9.20;;;2.73;;
13566;SDS011;6855;48.112;11.298;2023-03-12T00:12:09;8.93;;;2.73;;
13566;SDS011;6855;48.112;11.298;2023-03-12T00:14:37;7.20;;;2.60;;
13566;SDS011;6855;48.112;11.298;2023-03-12T00:17:05;7.30;;;2.43;;
13566;SDS011;6855;48.112;11.298;2023-03-12T00:19:33;9.50;;;3.80;;
13566;SDS011;6855;48.112;11.298;2023-03-12T00:22:00;10.97;;;4.30;;
13566;SDS011;6855;48.112;11.298;2023-03-12T00:24:27;12.93;;;4.90;;
13566;SDS011;6855;48.112;11.298;2023-03-12T00:26:54;7.20;;;3.60;;
13566;SDS011;6855;48.112;11.298;2023-03-12T00:29:21;9.73;;;3.40;;
13566;SDS011;6855;48.112;11.298;2023-03-12T00:31:48;6.83;;;2.97;;
13566;SDS011;6855;48.112;11.298;2023-03-12T00:34:17;8.07;;;3.00;;
13566;SDS011;6855;48.112;11.298;2023-03-12T00:36:45;6.50;;;3.50;;
13566;SDS011;6855;48.112;11.298;2023-03-12T00:39:12;4.37;;;2.50;;
13566;SDS011;6855;48.112;11.298;2023-03-12T00:41:39;4.63;;;3.00;;
13566;SDS011;6855;48.112;11.298;2023-03-12T00:44:06;4.40;;;2.10;;
13566;SDS011;6855;48.112;11.298;2023-03-12T00:46:33;3.77;;;2.13;;
13566;SDS011;6855;48.112;11.298;2023-03-12T00:49:00;4.57;;;2.70;;
13566;SDS011;6855;48.112;11.298;2023-03-12T00:51:29;3.60;;;2.10;;
13566;SDS011;6855;48.112;11.298;2023-03-12T00:53:56;2.83;;;1.77;;
13566;SDS011;6855;48.112;11.298;2023-03-12T00:56:24;2.87;;;2.13;;
13566;SDS011;6855;48.112;11.298;2023-03-12T00:58:51;2.40;;;1.80;;
13566;SDS011;6855;48.112;11.298;2023-03-12T01:01:18;2.10;;;1.63;;
13566;SDS011;6855;48.112;11.298;2023-03-12T01:03:45;5.17;;;2.70;;
13566;SDS011;6855;48.112;11.298;2023-03-12T01:06:13;4.27;;;2.33;;
13566;SDS011;6855;48.112;11.298;2023-03-12T01:08:41;4.17;;;2.13;;
13566;SDS011;6855;48.112;11.298;2023-03-12T01:11:11;4.70;;;2.10;;
13566;SDS011;6855;48.112;11.298;2023-03-12T01:13:38;3.43;;;1.80;;
13566;SDS011;6855;48.112;11.298;2023-03-12T01:16:05;4.73;;;1.93;;
13566;SDS011;6855;48.112;11.298;2023-03-12T01:18:33;5.00;;;2.70;;
13566;SDS011;6855;48.112;11.298;2023-03-12T01:21:00;6.93;;;2.13;;
13566;SDS011;6855;48.112;11.298;2023-03-12T01:23:27;3.70;;;2.20;;
13566;SDS011;6855;48.112;11.298;2023-03-12T01:25:56;4.47;;;2.30;;
13566;SDS011;6855;48.112;11.298;2023-03-12T01:28:23;7.20;;;3.03;;
13566;SDS011;6855;48.112;11.298;2023-03-12T01:30:51;6.83;;;2.70;;
13566;SDS011;6855;48.112;11.298;2023-03-12T01:33:18;4.40;;;3.00;;
13566;SDS011;6855;48.112;11.298;2023-03-12T01:35:47;4.57;;;3.40;;
13566;SDS011;6855;48.112;11.298;2023-03-12T01:38:14;6.40;;;3.60;;
13566;SDS011;6855;48.112;11.298;2023-03-12T01:40:43;6.17;;;3.00;;
13566;SDS011;6855;48.112;11.298;2023-03-12T01:46:09;7.33;;;3.50;;
13566;SDS011;6855;48.112;11.298;2023-03-12T01:48:43;6.37;;;3.50;;
13566;SDS011;6855;48.112;11.298;2023-03-12T01:51:11;5.37;;;3.43;;
13566;SDS011;6855;48.112;11.298;2023-03-12T01:53:39;12.07;;;5.17;;
13566;SDS011;6855;48.112;11.298;2023-03-12T01:56:08;19.03;;;5.20;;
13566;SDS011;6855;48.112;11.298;2023-03-12T01:58:35;16.83;;;6.40;;
13566;SDS011;6855;48.112;11.298;2023-03-12T02:01:04;14.17;;;4.73;;
13566;SDS011;6855;48.112;11.298;2023-03-12T02:03:32;7.70;;;3.10;;
13566;SDS011;6855;48.112;11.298;2023-03-12T02:06:01;8.70;;;3.93;;
13566;SDS011;6855;48.112;11.298;2023-03-12T02:08:30;6.40;;;2.80;;
13566;SDS011;6855;48.112;11.298;2023-03-12T02:11:01;3.50;;;2.53;;
13566;SDS011;6855;48.112;11.298;2023-03-12T02:13:28;4.20;;;2.50;;
13566;SDS011;6855;48.112;11.298;2023-03-12T02:15:56;5.03;;;3.00;;
13566;SDS011;6855;48.112;11.298;2023-03-12T02:18:23;5.83;;;2.97;;
13566;SDS011;6855;48.112;11.298;2023-03-12T02:20:54;7.40;;;3.03;;
13566;SDS011;6855;48.112;11.298;2023-03-12T02:23:25;9.43;;;3.73;;
13566;SDS011;6855;48.112;11.298;2023-03-12T02:25:54;9.67;;;3.70;;
13566;SDS011;6855;48.112;11.298;2023-03-12T02:28:23;10.50;;;4.80;;
13566;SDS011;6855;48.112;11.298;2023-03-12T02:30:51;27.10;;;8.30;;
13566;SDS011;6855;48.112;11.298;2023-03-12T02:33:20;23.60;;;7.80;;
13566;SDS011;6855;48.112;11.298;2023-03-12T02:35:47;19.33;;;7.20;;
13566;SDS011;6855;48.112;11.298;2023-03-12T02:38:35;17.53;;;6.60;;
13566;SDS011;6855;48.112;11.298;2023-03-12T02:41:04;20.60;;;8.30;;
13566;SDS011;6855;48.112;11.298;2023-03-12T02:43:32;12.47;;;7.10;;
13566;SDS011;6855;48.112;11.298;2023-03-12T02:45:59;17.13;;;7.17;;
13566;SDS011;6855;48.112;11.298;2023-03-12T02:48:26;13.10;;;6.53;;
13566;SDS011;6855;48.112;11.298;2023-03-12T02:50:54;12.27;;;6.00;;
13566;SDS011;6855;48.112;11.298;2023-03-12T02:53:21;13.43;;;6.53;;
13566;SDS011;6855;48.112;11.298;2023-03-12T02:55:48;17.10;;;6.87;;
13566;SDS011;6855;48.112;11.298;2023-03-12T02:58:16;10.30;;;6.60;;
13566;SDS011;6855;48.112;11.298;2023-03-12T03:00:44;10.77;;;5.70;;
13566;SDS011;6855;48.112;11.298;2023-03-12T03:03:11;11.70;;;6.00;;
13566;SDS011;6855;48.112;11.298;2023-03-12T03:05:38;9.53;;;5.87;;
13566;SDS011;6855;48.112;11.298;2023-03-12T03:08:05;8.70;;;5.17;;
13566;SDS011;6855;48.112;11.298;2023-03-12T03:10:33;9.50;;;4.40;;
13566;SDS011;6855;48.112;11.298;2023-03-12T03:13:00;4.93;;;4.00;;
13566;SDS011;6855;48.112;11.298;2023-03-12T03:15:28;6.13;;;4.00;;
13566;SDS011;6855;48.112;11.298;2023-03-12T03:17:56;6.50;;;4.17;;
13566;SDS011;6855;48.112;11.298;2023-03-12T03:20:23;6.40;;;3.90;;
13566;SDS011;6855;48.112;11.298;2023-03-12T03:22:51;6.77;;;5.00;;
13566;SDS011;6855;48.112;11.298;2023-03-12T03:25:18;7.90;;;4.20;;
13566;SDS011;6855;48.112;11.298;2023-03-12T03:27:47;7.63;;;3.97;;
13566;SDS011;6855;48.112;11.298;2023-03-12T03:30:15;5.83;;;3.80;;
13566;SDS011;6855;48.112;11.298;2023-03-12T03:32:43;6.67;;;4.57;;
13566;SDS011;6855;48.112;11.298;2023-03-12T03:35:11;6.73;;;3.83;;
13566;SDS011;6855;48.112;11.298;2023-03-12T03:37:38;8.63;;;4.63;;
13566;SDS011;6855;48.112;11.298;2023-03-12T03:40:06;5.93;;;4.30;;
13566;SDS011;6855;48.112;11.298;2023-03-12T03:42:35;9.97;;;5.90;;
13566;SDS011;6855;48.112;11.298;2023-03-12T03:45:04;8.90;;;5.50;;
13566;SDS011;6855;48.112;11.298;2023-03-12T03:47:31;10.90;;;6.27;;
13566;SDS011;6855;48.112;11.298;2023-03-12T03:50:00;7.67;;;5.33;;
13566;SDS011;6855;48.112;11.298;2023-03-12T03:52:27;8.67;;;5.23;;
13566;SDS011;6855;48.112;11.298;2023-03-12T03:54:54;8.17;;;4.93;;
13566;SDS011;6855;48.112;11.298;2023-03-12T03:57:23;7.57;;;5.30;;
13566;SDS011;6855;48.112;11.298;2023-03-12T03:59:50;7.20;;;4.93;;
13566;SDS011;6855;48.112;11.298;2023-03-12T04:02:17;6.53;;;4.73;;
13566;SDS011;6855;48.112;11.298;2023-03-12T04:04:45;10.23;;;5.00;;
13566;SDS011;6855;48.112;11.298;2023-03-12T04:07:13;10.73;;;4.63;;
13566;SDS011;6855;48.112;11.298;2023-03-12T04:09:40;6.90;;;4.07;;
13566;SDS011;6855;48.112;11.298;2023-03-12T04:12:07;6.90;;;4.60;;
13566;SDS011;6855;48.112;11.298;2023-03-12T04:14:37;7.83;;;4.83;;
13566;SDS011;6855;48.112;11.298;2023-03-12T04:17:04;4.20;;;3.80;;
13566;SDS011;6855;48.112;11.298;2023-03-12T04:19:32;12.03;;;5.10;;
13566;SDS011;6855;48.112;11.298;2023-03-12T04:21:59;5.30;;;4.10;;
13566;SDS011;6855;48.112;11.298;2023-03-12T04:24:28;5.73;;;4.30;;
13566;SDS011;6855;48.112;11.298;2023-03-12T04:26:55;6.27;;;4.10;;
13566;SDS011;6855;48.112;11.298;2023-03-12T04:29:23;7.40;;;5.23;;
13566;SDS011;6855;48.112;11.298;2023-03-12T04:31:51;8.43;;;5.00;;
13566;SDS011;6855;48.112;11.298;2023-03-12T04:34:18;7.43;;;5.17;;
13566;SDS011;6855;48.112;11.298;2023-03-12T04:36:46;8.83;;;5.20;;
13566;SDS011;6855;48.112;11.298;2023-03-12T04:39:15;5.80;;;4.27;;
13566;SDS011;6855;48.112;11.298;2023-03-12T04:41:44;6.90;;;4.77;;
13566;SDS011;6855;48.112;11.298;2023-03-12T04:44:11;9.80;;;5.33;;
13566;SDS011;6855;48.112;11.298;2023-03-12T04:46:38;9.70;;;4.63;;
13566;SDS011;6855;48.112;11.298;2023-03-12T04:49:05;6.10;;;4.33;;
13566;SDS011;6855;48.112;11.298;2023-03-12T04:51:32;7.90;;;4.67;;
13566;SDS011;6855;48.112;11.298;2023-03-12T04:53:59;13.87;;;5.67;;
13566;SDS011;6855;48.112;11.298;2023-03-12T04:56:27;9.90;;;5.27;;
13566;SDS011;6855;48.112;11.298;2023-03-12T04:58:55;6.30;;;4.83;;
13566;SDS011;6855;48.112;11.298;2023-03-12T05:01:23;7.07;;;4.90;;
13566;SDS011;6855;48.112;11.298;2023-03-12T05:03:51;7.93;;;4.67;;
13566;SDS011;6855;48.112;11.298;2023-03-12T05:06:18;8.47;;;4.90;;
13566;SDS011;6855;48.112;11.298;2023-03-12T05:08:46;6.90;;;4.80;;
13566;SDS011;6855;48.112;11.298;2023-03-12T05:11:13;6.93;;;5.07;;
13566;SDS011;6855;48.112;11.298;2023-03-12T05:13:40;8.57;;;5.57;;
13566;SDS011;6855;48.112;11.298;2023-03-12T05:16:09;7.63;;;4.53;;
13566;SDS011;6855;48.112;11.298;2023-03-12T05:18:37;9.13;;;5.73;;
13566;SDS011;6855;48.112;11.298;2023-03-12T05:21:05;4.83;;;4.13;;
13566;SDS011;6855;48.112;11.298;2023-03-12T05:23:33;8.70;;;5.17;;
13566;SDS011;6855;48.112;11.298;2023-03-12T05:26:00;9.10;;;5.83;;
13566;SDS011;6855;48.112;11.298;2023-03-12T05:28:27;8.20;;;4.90;;
13566;SDS011;6855;48.112;11.298;2023-03-12T05:30:55;6.60;;;4.67;;
13566;SDS011;6855;48.112;11.298;2023-03-12T05:33:24;7.00;;;5.03;;
13566;SDS011;6855;48.112;11.298;2023-03-12T05:35:51;8.63;;;5.20;;
13566;SDS011;6855;48.112;11.298;2023-03-12T05:38:19;9.50;;;4.90;;
13566;SDS011;6855;48.112;11.298;2023-03-12T05:40:50;5.47;;;4.10;;
13566;SDS011;6855;48.112;11.298;2023-03-12T05:43:17;8.00;;;5.10;;
13566;SDS011;6855;48.112;11.298;2023-03-12T05:45:44;6.73;;;4.60;;
13566;SDS011;6855;48.112;11.298;2023-03-12T05:48:12;8.87;;;4.77;;
13566;SDS011;6855;48.112;11.298;2023-03-12T05:50:40;6.43;;;4.50;;
13566;SDS011;6855;48.112;11.298;2023-03-12T05:53:07;6.67;;;5.00;;
13566;SDS011;6855;48.112;11.298;2023-03-12T05:55:35;6.70;;;4.30;;
13566;SDS011;6855;48.112;11.298;2023-03-12T05:58:03;6.37;;;3.87;;
13566;SDS011;6855;48.112;11.298;2023-03-12T06:00:30;7.93;;;3.87;;
13566;SDS011;6855;48.112;11.298;2023-03-12T06:02:59;9.13;;;4.67;;
13566;SDS011;6855;48.112;11.298;2023-03-12T06:05:26;7.93;;;4.80;;
13566;SDS011;6855;48.112;11.298;2023-03-12T06:07:55;3.50;;;3.20;;
13566;SDS011;6855;48.112;11.298;2023-03-12T06:10:22;6.30;;;4.60;;
13566;SDS011;6855;48.112;11.298;2023-03-12T06:12:49;4.83;;;3.67;;
13566;SDS011;6855;48.112;11.298;2023-03-12T06:15:17;5.03;;;3.33;;
13566;SDS011;6855;48.112;11.298;2023-03-12T06:17:44;5.97;;;3.10;;
13566;SDS011;6855;48.112;11.298;2023-03-12T06:20:11;5.70;;;2.90;;
13566;SDS011;6855;48.112;11.298;2023-03-12T06:22:38;3.90;;;2.97;;
13566;SDS011;6855;48.112;11.298;2023-03-12T06:25:07;4.20;;;3.17;;
13566;SDS011;6855;48.112;11.298;2023-03-12T06:27:35;5.00;;;3.30;;
13566;SDS011;6855;48.112;11.298;2023-03-12T06:30:02;6.30;;;3.50;;
13566;SDS011;6855;48.112;11.298;2023-03-12T06:32:29;3.70;;;2.77;;
13566;SDS011;6855;48.112;11.298;2023-03-12T06:34:56;4.57;;;2.70;;
13566;SDS011;6855;48.112;11.298;2023-03-12T06:37:24;3.27;;;2.03;;
13566;SDS011;6855;48.112;11.298;2023-03-12T06:39:51;3.93;;;2.50;;
13566;SDS011;6855;48.112;11.298;2023-03-12T06:42:20;4.10;;;2.57;;
13566;SDS011;6855;48.112;11.298;2023-03-12T06:44:47;7.33;;;1.90;;
13566;SDS011;6855;48.112;11.298;2023-03-12T06:47:15;2.87;;;2.50;;
13566;SDS011;6855;48.112;11.298;2023-03-12T06:49:42;2.17;;;1.97;;
13566;SDS011;6855;48.112;11.298;2023-03-12T06:52:09;5.77;;;2.23;;
13566;SDS011;6855;48.112;11.298;2023-03-12T06:54:36;3.33;;;2.10;;
13566;SDS011;6855;48.112;11.298;2023-03-12T06:57:04;2.80;;;1.90;;
13566;SDS011;6855;48.112;11.298;2023-03-12T06:59:32;2.33;;;1.90;;
13566;SDS011;6855;48.112;11.298;2023-03-12T07:01:59;3.40;;;1.90;;
13566;SDS011;6855;48.112;11.298;2023-03-12T07:04:26;5.10;;;2.20;;
13566;SDS011;6855;48.112;11.298;2023-03-12T07:06:54;2.23;;;1.73;;
13566;SDS011;6855;48.112;11.298;2023-03-12T07:09:21;3.80;;;2.03;;
13566;SDS011;6855;48.112;11.298;2023-03-12T07:11:48;2.67;;;2.00;;
13566;SDS011;6855;48.112;11.298;2023-03-12T07:14:15;2.23;;;1.80;;
13566;SDS011;6855;48.112;11.298;2023-03-12T07:16:45;2.10;;;1.90;;
13566;SDS011;6855;48.112;11.298;2023-03-12T07:19:12;4.03;;;2.10;;
13566;SDS011;6855;48.112;11.298;2023-03-12T07:21:40;2.97;;;1.87;;
13566;SDS011;6855;48.112;11.298;2023-03-12T07:24:07;2.03;;;1.50;;
13566;SDS011;6855;48.112;11.298;2023-03-12T07:26:34;3.03;;;1.93;;
13566;SDS011;6855;48.112;11.298;2023-03-12T07:29:01;2.73;;;1.87;;
13566;SDS011;6855;48.112;11.298;2023-03-12T07:31:29;2.00;;;1.67;;
13566;SDS011;6855;48.112;11.298;2023-03-12T07:33:57;2.30;;;1.60;;
13566;SDS011;6855;48.112;11.298;2023-03-12T07:36:27;6.33;;;1.90;;
13566;SDS011;6855;48.112;11.298;2023-03-12T07:38:54;2.30;;;1.93;;
13566;SDS011;6855;48.112;11.298;2023-03-12T07:41:21;2.53;;;2.17;;
13566;SDS011;6855;48.112;11.298;2023-03-12T07:43:49;3.70;;;2.37;;
13566;SDS011;6855;48.112;11.298;2023-03-12T07:46:16;2.70;;;2.47;;
13566;SDS011;6855;48.112;11.298;2023-03-12T07:48:43;3.67;;;2.00;;
13566;SDS011;6855;48.112;11.298;2023-03-12T07:51:11;1.83;;;1.47;;
13566;SDS011;6855;48.112;11.298;2023-03-12T07:53:39;2.07;;;1.70;;
13566;SDS011;6855;48.112;11.298;2023-03-12T07:56:06;2.27;;;1.80;;
13566;SDS011;6855;48.112;11.298;2023-03-12T07:58:33;4.47;;;2.80;;
13566;SDS011;6855;48.112;11.298;2023-03-12T08:01:00;4.43;;;2.87;;
13566;SDS011;6855;48.112;11.298;2023-03-12T08:03:28;2.10;;;1.97;;
13566;SDS011;6855;48.112;11.298;2023-03-12T08:05:56;2.50;;;2.30;;
13566;SDS011;6855;48.112;11.298;2023-03-12T08:08:25;1.70;;;1.60;;
13566;SDS011;6855;48.112;11.298;2023-03-12T08:10:52;1.87;;;1.67;;
13566;SDS011;6855;48.112;11.298;2023-03-12T08:13:19;3.47;;;1.93;;
13566;SDS011;6855;48.112;11.298;2023-03-12T08:15:48;4.23;;;1.87;;
13566;SDS011;6855;48.112;11.298;2023-03-12T08:18:15;2.07;;;1.80;;
13566;SDS011;6855;48.112;11.298;2023-03-12T08:20:43;3.20;;;1.80;;
13566;SDS011;6855;48.112;11.298;2023-03-12T08:23:10;5.27;;;1.80;;
13566;SDS011;6855;48.112;11.298;2023-03-12T08:25:38;2.23;;;1.73;;
13566;SDS011;6855;48.112;11.298;2023-03-12T08:28:06;2.80;;;1.80;;
13566;SDS011;6855;48.112;11.298;2023-03-12T08:30:33;3.10;;;1.90;;
13566;SDS011;6855;48.112;11.298;2023-03-12T08:33:00;8.33;;;5.27;;
13566;SDS011;6855;48.112;11.298;2023-03-12T08:35:27;6.93;;;4.70;;
13566;SDS011;6855;48.112;11.298;2023-03-12T08:37:54;5.17;;;3.60;;
13566;SDS011;6855;48.112;11.298;2023-03-12T08:40:22;6.70;;;3.40;;
13566;SDS011;6855;48.112;11.298;2023-03-12T08:42:50;5.53;;;2.90;;
13566;SDS011;6855;48.112;11.298;2023-03-12T08:45:17;2.40;;;1.83;;
13566;SDS011;6855;48.112;11.298;2023-03-12T08:47:45;1.97;;;1.53;;
13566;SDS011;6855;48.112;11.298;2023-03-12T08:50:12;2.20;;;2.00;;
13566;SDS011;6855;48.112;11.298;2023-03-12T08:52:40;1.80;;;1.50;;
13566;SDS011;6855;48.112;11.298;2023-03-12T08:55:08;1.47;;;1.37;;
13566;SDS011;6855;48.112;11.298;2023-03-12T08:57:36;2.33;;;1.83;;
13566;SDS011;6855;48.112;11.298;2023-03-12T09:00:06;2.00;;;1.43;;
13566;SDS011;6855;48.112;11.298;2023-03-12T09:02:38;2.53;;;2.10;;
13566;SDS011;6855;48.112;11.298;2023-03-12T09:05:06;1.47;;;1.37;;
13566;SDS011;6855;48.112;11.298;2023-03-12T09:07:33;1.70;;;1.33;;
13566;SDS011;6855;48.112;11.298;2023-03-12T09:10:00;1.80;;;1.50;;
13566;SDS011;6855;48.112;11.298;2023-03-12T09:12:27;2.17;;;1.60;;
13566;SDS011;6855;48.112;11.298;2023-03-12T09:14:55;1.70;;;1.60;;
13566;SDS011;6855;48.112;11.298;2023-03-12T09:17:23;2.73;;;2.00;;
13566;SDS011;6855;48.112;11.298;2023-03-12T09:19:50;3.03;;;1.63;;
13566;SDS011;6855;48.112;11.298;2023-03-12T09:22:18;1.13;;;1.03;;
13566;SDS011;6855;48.112;11.298;2023-03-12T09:24:45;1.43;;;1.33;;
13566;SDS011;6855;48.112;11.298;2023-03-12T09:27:12;3.37;;;1.57;;
13566;SDS011;6855;48.112;11.298;2023-03-12T09:29:39;1.47;;;1.37;;
13566;SDS011;6855;48.112;11.298;2023-03-12T09:32:06;4.90;;;1.67;;
13566;SDS011;6855;48.112;11.298;2023-03-12T09:34:35;2.27;;;1.40;;
13566;SDS011;6855;48.112;11.298;2023-03-12T09:37:02;2.30;;;1.80;;
13566;SDS011;6855;48.112;11.298;2023-03-12T09:39:29;1.57;;;1.47;;
13566;SDS011;6855;48.112;11.298;2023-03-12T09:41:56;1.83;;;1.60;;
13566;SDS011;6855;48.112;11.298;2023-03-12T09:44:26;1.33;;;1.23;;
13566;SDS011;6855;48.112;11.298;2023-03-12T09:46:56;2.87;;;1.47;;
13566;SDS011;6855;48.112;11.298;2023-03-12T09:49:27;2.80;;;1.70;;
13566;SDS011;6855;48.112;11.298;2023-03-12T09:51:57;2.20;;;1.60;;
13566;SDS011;6855;48.112;11.298;2023-03-12T09:54:27;1.17;;;1.10;;
13566;SDS011;6855;48.112;11.298;2023-03-12T09:56:56;1.50;;;1.40;;
13566;SDS011;6855;48.112;11.298;2023-03-12T09:59:23;4.37;;;1.57;;
13566;SDS011;6855;48.112;11.298;2023-03-12T10:01:52;1.10;;;1.00;;
13566;SDS011;6855;48.112;11.298;2023-03-12T10:04:31;2.40;;;1.50;;
13566;SDS011;6855;48.112;11.298;2023-03-12T10:07:03;2.10;;;1.70;;
13566;SDS011;6855;48.112;11.298;2023-03-12T10:09:48;1.67;;;1.40;;
13566;SDS011;6855;48.112;11.298;2023-03-12T10:12:33;1.30;;;1.10;;
13566;SDS011;6855;48.112;11.298;2023-03-12T10:15:27;1.43;;;1.33;;
13566;SDS011;6855;48.112;11.298;2023-03-12T10:18:12;1.20;;;1.10;;
13566;SDS011;6855;48.112;11.298;2023-03-12T10:20:58;1.30;;;1.20;;
13566;SDS011;6855;48.112;11.298;2023-03-12T10:26:32;1.10;;;1.00;;
13566;SDS011;6855;48.112;11.298;2023-03-12T10:29:02;2.10;;;1.10;;
13566;SDS011;6855;48.112;11.298;2023-03-12T10:34:43;1.70;;;0.93;;
13566;SDS011;6855;48.112;11.298;2023-03-12T10:37:21;1.37;;;1.00;;
13566;SDS011;6855;48.112;11.298;2023-03-12T10:39:50;1.17;;;1.07;;
13566;SDS011;6855;48.112;11.298;2023-03-12T10:45:22;1.40;;;1.00;;
13566;SDS011;6855;48.112;11.298;2023-03-12T10:48:03;0.80;;;0.80;;
13566;SDS011;6855;48.112;11.298;2023-03-12T10:50:59;0.80;;;0.80;;
13566;SDS011;6855;48.112;11.298;2023-03-12T10:53:26;0.93;;;0.77;;
13566;SDS011;6855;48.112;11.298;2023-03-12T10:55:57;1.07;;;0.70;;
13566;SDS011;6855;48.112;11.298;2023-03-12T10:58:32;4.10;;;0.70;;
13566;SDS011;6855;48.112;11.298;2023-03-12T11:01:06;0.80;;;0.60;;
13566;SDS011;6855;48.112;11.298;2023-03-12T11:03:41;1.20;;;0.90;;
13566;SDS011;6855;48.112;11.298;2023-03-12T11:06:27;1.10;;;0.93;;
13566;SDS011;6855;48.112;11.298;2023-03-12T11:09:03;0.80;;;0.70;;
13566;SDS011;6855;48.112;11.298;2023-03-12T11:11:33;1.87;;;1.10;;
13566;SDS011;6855;48.112;11.298;2023-03-12T11:14:05;10.00;;;3.40;;
13566;SDS011;6855;48.112;11.298;2023-03-12T11:16:35;6.00;;;2.80;;
13566;SDS011;6855;48.112;11.298;2023-03-12T11:19:10;8.97;;;3.20;;
13566;SDS011;6855;48.112;11.298;2023-03-12T11:21:53;10.33;;;3.63;;
13566;SDS011;6855;48.112;11.298;2023-03-12T11:24:24;12.50;;;4.70;;
13566;SDS011;6855;48.112;11.298;2023-03-12T11:26:58;4.73;;;2.30;;
13566;SDS011;6855;48.112;11.298;2023-03-12T11:29:29;1.50;;;1.30;;
13566;SDS011;6855;48.112;11.298;2023-03-12T11:32:22;0.90;;;0.90;;
13566;SDS011;6855;48.112;11.298;2023-03-12T11:34:55;1.10;;;1.00;;
13566;SDS011;6855;48.112;11.298;2023-03-12T11:37:24;1.30;;;1.20;;
13566;SDS011;6855;48.112;11.298;2023-03-12T11:40:03;2.17;;;1.43;;
13566;SDS011;6855;48.112;11.298;2023-03-12T11:42:38;1.77;;;1.27;;
13566;SDS011;6855;48.112;11.298;2023-03-12T11:45:13;1.50;;;1.40;;
13566;SDS011;6855;48.112;11.298;2023-03-12T11:47:45;1.53;;;1.40;;
13566;SDS011;6855;48.112;11.298;2023-03-12T11:50:23;2.03;;;1.43;;
13566;SDS011;6855;48.112;11.298;2023-03-12T11:52:56;2.87;;;1.47;;
13566;SDS011;6855;48.112;11.298;2023-03-12T11:55:33;2.33;;;1.70;;
13566;SDS011;6855;48.112;11.298;2023-03-12T11:58:07;2.60;;;1.90;;
13566;SDS011;6855;48.112;11.298;2023-03-12T12:00:40;2.10;;;1.90;;
13566;SDS011;6855;48.112;11.298;2023-03-12T12:03:18;3.13;;;2.30;;
13566;SDS011;6855;48.112;11.298;2023-03-12T12:05:51;2.40;;;1.73;;
13566;SDS011;6855;48.112;11.298;2023-03-12T12:08:29;2.27;;;1.80;;
13566;SDS011;6855;48.112;11.298;2023-03-12T12:11:02;3.77;;;2.63;;
13566;SDS011;6855;48.112;11.298;2023-03-12T12:13:33;3.40;;;2.50;;
13566;SDS011;6855;48.112;11.298;2023-03-12T12:16:08;2.93;;;2.27;;
13566;SDS011;6855;48.112;11.298;2023-03-12T12:18:44;3.17;;;2.23;;
13566;SDS011;6855;48.112;11.298;2023-03-12T12:21:21;2.30;;;2.10;;
13566;SDS011;6855;48.112;11.298;2023-03-12T12:23:51;2.93;;;2.30;;
13566;SDS011;6855;48.112;11.298;2023-03-12T12:26:20;2.50;;;2.30;;
13566;SDS011;6855;48.112;11.298;2023-03-12T12:31:39;3.47;;;2.40;;
13566;SDS011;6855;48.112;11.298;2023-03-12T12:37:14;2.67;;;2.20;;
13566;SDS011;6855;48.112;11.298;2023-03-12T12:39:44;4.10;;;2.20;;
13566;SDS011;6855;48.112;11.298;2023-03-12T12:42:15;4.47;;;2.20;;
13566;SDS011;6855;48.112;11.298;2023-03-12T12:44:45;3.63;;;2.20;;
13566;SDS011;6855;48.112;11.298;2023-03-12T12:47:15;3.50;;;2.23;;
13566;SDS011;6855;48.112;11.298;2023-03-12T12:49:45;2.17;;;1.97;;
13566;SDS011;6855;48.112;11.298;2023-03-12T12:52:16;9.73;;;2.37;;
13566;SDS011;6855;48.112;11.298;2023-03-12T12:54:48;6.40;;;1.83;;
13566;SDS011;6855;48.112;11.298;2023-03-12T12:57:19;2.27;;;1.80;;
13566;SDS011;6855;48.112;11.298;2023-03-12T12:59:49;2.23;;;1.80;;
13566;SDS011;6855;48.112;11.298;2023-03-12T13:02:21;2.97;;;2.00;;
13566;SDS011;6855;48.112;11.298;2023-03-12T13:04:50;2.77;;;2.20;;
13566;SDS011;6855;48.112;11.298;2023-03-12T13:07:29;3.10;;;2.00;;
13566;SDS011;6855;48.112;11.298;2023-03-12T13:09:59;4.40;;;1.90;;
13566;SDS011;6855;48.112;11.298;2023-03-12T13:12:40;2.10;;;1.60;;
13566;SDS011;6855;48.112;11.298;2023-03-12T13:27:02;3.63;;;1.97;;
13566;SDS011;6855;48.112;11.298;2023-03-12T13:29:44;3.70;;;1.90;;
13566;SDS011;6855;48.112;11.298;2023-03-12T13:34:27;3.03;;;1.83;;
13566;SDS011;6855;48.112;11.298;2023-03-12T13:35:30;3.00;;;1.70;;
13566;SDS011;6855;48.112;11.298;2023-03-12T13:38:11;5.40;;;2.50;;
13566;SDS011;6855;48.112;11.298;2023-03-12T13:41:11;3.30;;;1.70;;
13566;SDS011;6855;48.112;11.298;2023-03-12T13:46:58;2.80;;;1.57;;
13566;SDS011;6855;48.112;11.298;2023-03-12T13:50:09;3.03;;;1.87;;
13566;SDS011;6855;48.112;11.298;2023-03-12T13:54:02;2.73;;;1.80;;
13566;SDS011;6855;48.112;11.298;2023-03-12T13:56:12;7.07;;;2.10;;
13566;SDS011;6855;48.112;11.298;2023-03-12T13:58:39;2.63;;;2.00;;
13566;SDS011;6855;48.112;11.298;2023-03-12T14:01:22;6.00;;;2.27;;
13566;SDS011;6855;48.112;11.298;2023-03-12T14:03:54;3.30;;;1.70;;
13566;SDS011;6855;48.112;11.298;2023-03-12T14:13:05;3.80;;;1.67;;
13566;SDS011;6855;48.112;11.298;2023-03-12T14:15:26;8.00;;;1.97;;
13566;SDS011;6855;48.112;11.298;2023-03-12T14:18:12;3.20;;;1.20;;
13566;SDS011;6855;48.112;11.298;2023-03-12T14:21:17;1.10;;;1.00;;
13566;SDS011;6855;48.112;11.298;2023-03-12T14:26:06;2.87;;;1.63;;
13566;SDS011;6855;48.112;11.298;2023-03-12T14:27:32;2.30;;;1.50;;
13566;SDS011;6855;48.112;11.298;2023-03-12T14:29:56;2.90;;;1.23;;
13566;SDS011;6855;48.112;11.298;2023-03-12T14:33:44;3.43;;;1.60;;
13566;SDS011;6855;48.112;11.298;2023-03-12T14:38:55;3.17;;;1.40;;
13566;SDS011;6855;48.112;11.298;2023-03-12T14:41:50;2.50;;;1.23;;
13566;SDS011;6855;48.112;11.298;2023-03-12T14:45:13;1.77;;;1.07;;
13566;SDS011;6855;48.112;11.298;2023-03-12T14:47:47;2.77;;;1.30;;
13566;SDS011;6855;48.112;11.298;2023-03-12T14:50:18;1.50;;;0.80;;
13566;SDS011;6855;48.112;11.298;2023-03-12T14:52:46;0.80;;;0.80;;
13566;SDS011;6855;48.112;11.298;2023-03-12T14:55:16;1.77;;;1.50;;
13566;SDS011;6855;48.112;11.298;2023-03-12T14:57:45;2.37;;;0.80;;
13566;SDS011;6855;48.112;11.298;2023-03-12T15:00:20;1.27;;;0.70;;
13566;SDS011;6855;48.112;11.298;2023-03-12T15:02:47;0.77;;;0.70;;
13566;SDS011;6855;48.112;11.298;2023-03-12T15:05:15;0.83;;;0.70;;
13566;SDS011;6855;48.112;11.298;2023-03-12T15:07:43;1.80;;;0.90;;
13566;SDS011;6855;48.112;11.298;2023-03-12T15:10:17;1.53;;;1.30;;
13566;SDS011;6855;48.112;11.298;2023-03-12T15:12:45;3.83;;;0.90;;
13566;SDS011;6855;48.112;11.298;2023-03-12T15:15:20;1.27;;;0.77;;
13566;SDS011;6855;48.112;11.298;2023-03-12T15:17:49;1.30;;;0.80;;
13566;SDS011;6855;48.112;11.298;2023-03-12T15:20:16;3.73;;;1.13;;
13566;SDS011;6855;48.112;11.298;2023-03-12T15:22:44;2.53;;;1.13;;
13566;SDS011;6855;48.112;11.298;2023-03-12T15:25:22;3.67;;;1.20;;
13566;SDS011;6855;48.112;11.298;2023-03-12T15:27:59;2.00;;;1.23;;
13566;SDS011;6855;48.112;11.298;2023-03-12T15:30:26;1.67;;;1.10;;
13566;SDS011;6855;48.112;11.298;2023-03-12T15:33:04;1.07;;;0.83;;
13566;SDS011;6855;48.112;11.298;2023-03-12T15:35:31;0.90;;;0.70;;
13566;SDS011;6855;48.112;11.298;2023-03-12T15:37:59;2.60;;;1.17;;
13566;SDS011;6855;48.112;11.298;2023-03-12T15:40:28;2.07;;;1.00;;
13566;SDS011;6855;48.112;11.298;2023-03-12T15:42:56;1.20;;;0.80;;
13566;SDS011;6855;48.112;11.298;2023-03-12T15:45:29;1.87;;;0.80;;
13566;SDS011;6855;48.112;11.298;2023-03-12T15:48:12;2.70;;;0.77;;
13566;SDS011;6855;48.112;11.298;2023-03-12T15:50:41;1.33;;;1.03;;